sensor_id;sensor_type;location;lat;lon;timestamp;temperature;humidity
21037;DHT22;10677;50.942;4.028;2023-03-23T00:02:29;13.70;99.90
21037;DHT22;10677;50.942;4.028;2023-03-23T00:04:55;13.70;99.90
21037;DHT22;10677;50.942;4.028;2023-03-23T00:07:22;13.70;99.90
21037;DHT22;10677;50.942;4.028;2023-03-23T00:09:51;13.60;99.90
21037;DHT22;10677;50.942;4.028;2023-03-23T00:12:27;13.60;99.90
21037;DHT22;10677;50.942;4.028;2023-03-23T00:15:07;13.60;99.90
21037;DHT22;10677;50.942;4.028;2023-03-23T00:17:41;13.60;99.90
21037;DHT22;10677;50.942;4.028;2023-03-23T00:20:09;13.60;99.90
21037;DHT22;10677;50.942;4.028;2023-03-23T00:22:38;13.60;99.90
21037;DHT22;10677;50.942;4.028;2023-03-23T00:25:05;13.70;99.90
21037;DHT22;10677;50.942;4.028;2023-03-23T00:27:31;13.70;99.90
21037;DHT22;10677;50.942;4.028;2023-03-23T00:29:57;13.70;99.90
21037;DHT22;10677;50.942;4.028;2023-03-23T00:32:24;13.70;99.90
21037;DHT22;10677;50.942;4.028;2023-03-23T00:34:56;13.70;99.90
21037;DHT22;10677;50.942;4.028;2023-03-23T00:37:24;13.60;99.90
21037;DHT22;10677;50.942;4.028;2023-03-23T00:39:49;13.60;99.90
21037;DHT22;10677;50.942;4.028;2023-03-23T00:42:17;13.60;99.90
21037;DHT22;10677;50.942;4.028;2023-03-23T00:44:43;13.60;99.90
21037;DHT22;10677;50.942;4.028;2023-03-23T00:47:10;13.70;99.90
21037;DHT22;10677;50.942;4.028;2023-03-23T00:49:37;13.70;99.90
21037;DHT22;10677;50.942;4.028;2023-03-23T00:52:03;13.60;99.90
21037;DHT22;10677;50.942;4.028;2023-03-23T00:54:30;13.60;99.90
21037;DHT22;10677;50.942;4.028;2023-03-23T00:56:56;13.60;99.90
21037;DHT22;10677;50.942;4.028;2023-03-23T00:59:22;13.70;99.90
21037;DHT22;10677;50.942;4.028;2023-03-23T01:01:49;13.60;99.90
21037;DHT22;10677;50.942;4.028;2023-03-23T01:04:15;13.70;99.90
21037;DHT22;10677;50.942;4.028;2023-03-23T01:06:43;13.70;99.90
21037;DHT22;10677;50.942;4.028;2023-03-23T01:09:12;13.70;99.90
21037;DHT22;10677;50.942;4.028;2023-03-23T01:11:41;13.70;99.90
21037;DHT22;10677;50.942;4.028;2023-03-23T01:14:07;13.60;99.90
21037;DHT22;10677;50.942;4.028;2023-03-23T01:16:33;13.70;99.90
21037;DHT22;10677;50.942;4.028;2023-03-23T01:18:59;13.70;99.90
21037;DHT22;10677;50.942;4.028;2023-03-23T01:21:25;13.70;99.90
21037;DHT22;10677;50.942;4.028;2023-03-23T01:23:51;13.60;99.90
21037;DHT22;10677;50.942;4.028;2023-03-23T01:26:21;13.60;99.90
21037;DHT22;10677;50.942;4.028;2023-03-23T01:28:47;13.60;99.90
21037;DHT22;10677;50.942;4.028;2023-03-23T01:31:16;13.70;99.90
21037;DHT22;10677;50.942;4.028;2023-03-23T01:33:43;13.70;99.90
21037;DHT22;10677;50.942;4.028;2023-03-23T01:36:17;13.70;99.90
21037;DHT22;10677;50.942;4.028;2023-03-23T01:38:44;13.70;99.90
21037;DHT22;10677;50.942;4.028;2023-03-23T01:41:11;13.70;99.90
21037;DHT22;10677;50.942;4.028;2023-03-23T01:44:03;13.70;99.90
21037;DHT22;10677;50.942;4.028;2023-03-23T01:46:35;13.70;99.90
21037;DHT22;10677;50.942;4.028;2023-03-23T01:49:07;13.70;99.90
21037;DHT22;10677;50.942;4.028;2023-03-23T01:51:45;13.70;99.90
21037;DHT22;10677;50.942;4.028;2023-03-23T01:54:14;13.70;99.90
21037;DHT22;10677;50.942;4.028;2023-03-23T01:56:52;13.60;99.90
21037;DHT22;10677;50.942;4.028;2023-03-23T01:59:20;13.60;99.90
21037;DHT22;10677;50.942;4.028;2023-03-23T02:01:46;13.60;99.90
21037;DHT22;10677;50.942;4.028;2023-03-23T02:04:14;13.60;99.90
21037;DHT22;10677;50.942;4.028;2023-03-23T02:06:42;13.60;99.90
21037;DHT22;10677;50.942;4.028;2023-03-23T02:09:10;13.60;99.90
21037;DHT22;10677;50.942;4.028;2023-03-23T02:11:39;13.60;99.90
21037;DHT22;10677;50.942;4.028;2023-03-23T02:14:05;13.60;99.90
21037;DHT22;10677;50.942;4.028;2023-03-23T02:36:03;13.50;99.90
21037;DHT22;10677;50.942;4.028;2023-03-23T02:38:42;13.50;99.90
21037;DHT22;10677;50.942;4.028;2023-03-23T02:41:11;13.50;99.90
21037;DHT22;10677;50.942;4.028;2023-03-23T02:43:41;13.50;99.90
21037;DHT22;10677;50.942;4.028;2023-03-23T02:46:08;13.50;99.90
21037;DHT22;10677;50.942;4.028;2023-03-23T02:48:36;13.40;99.90
21037;DHT22;10677;50.942;4.028;2023-03-23T02:51:04;13.50;99.90
21037;DHT22;10677;50.942;4.028;2023-03-23T02:53:33;13.40;99.90
21037;DHT22;10677;50.942;4.028;2023-03-23T02:56:01;13.40;99.90
21037;DHT22;10677;50.942;4.028;2023-03-23T02:58:29;13.50;99.90
21037;DHT22;10677;50.942;4.028;2023-03-23T03:00:55;13.50;99.90
21037;DHT22;10677;50.942;4.028;2023-03-23T03:03:23;13.60;99.90
21037;DHT22;10677;50.942;4.028;2023-03-23T03:08:45;13.50;99.90
21037;DHT22;10677;50.942;4.028;2023-03-23T03:11:15;13.50;99.90
21037;DHT22;10677;50.942;4.028;2023-03-23T03:14:00;13.50;99.90
21037;DHT22;10677;50.942;4.028;2023-03-23T03:16:33;13.50;99.90
21037;DHT22;10677;50.942;4.028;2023-03-23T03:19:13;13.50;99.90
21037;DHT22;10677;50.942;4.028;2023-03-23T03:21:43;13.50;99.90
21037;DHT22;10677;50.942;4.028;2023-03-23T03:24:11;13.50;99.90
21037;DHT22;10677;50.942;4.028;2023-03-23T03:26:43;13.40;99.90
21037;DHT22;10677;50.942;4.028;2023-03-23T03:29:11;13.40;99.90
21037;DHT22;10677;50.942;4.028;2023-03-23T03:31:39;13.40;99.90
21037;DHT22;10677;50.942;4.028;2023-03-23T03:34:06;13.50;99.90
21037;DHT22;10677;50.942;4.028;2023-03-23T03:36:34;13.40;99.90
21037;DHT22;10677;50.942;4.028;2023-03-23T03:39:03;13.50;99.90
21037;DHT22;10677;50.942;4.028;2023-03-23T03:41:30;13.40;99.90
21037;DHT22;10677;50.942;4.028;2023-03-23T03:43:56;13.40;99.90
21037;DHT22;10677;50.942;4.028;2023-03-23T03:46:22;13.50;99.90
21037;DHT22;10677;50.942;4.028;2023-03-23T03:48:52;13.40;99.90
21037;DHT22;10677;50.942;4.028;2023-03-23T03:51:18;13.50;99.90
21037;DHT22;10677;50.942;4.028;2023-03-23T03:53:44;13.50;99.90
21037;DHT22;10677;50.942;4.028;2023-03-23T03:56:09;13.50;99.90
21037;DHT22;10677;50.942;4.028;2023-03-23T03:58:36;13.40;99.90
21037;DHT22;10677;50.942;4.028;2023-03-23T04:01:03;13.40;99.90
21037;DHT22;10677;50.942;4.028;2023-03-23T04:03:28;13.40;99.90
21037;DHT22;10677;50.942;4.028;2023-03-23T04:05:55;13.40;99.90
21037;DHT22;10677;50.942;4.028;2023-03-23T04:08:24;13.40;99.90
21037;DHT22;10677;50.942;4.028;2023-03-23T04:10:50;13.40;99.90
21037;DHT22;10677;50.942;4.028;2023-03-23T04:13:16;13.40;99.90
21037;DHT22;10677;50.942;4.028;2023-03-23T04:15:43;13.40;99.90
21037;DHT22;10677;50.942;4.028;2023-03-23T04:18:09;13.40;99.90
21037;DHT22;10677;50.942;4.028;2023-03-23T04:20:35;13.40;99.90
21037;DHT22;10677;50.942;4.028;2023-03-23T04:23:02;13.40;99.90
21037;DHT22;10677;50.942;4.028;2023-03-23T04:25:28;13.40;99.90
21037;DHT22;10677;50.942;4.028;2023-03-23T04:27:58;13.40;99.90
21037;DHT22;10677;50.942;4.028;2023-03-23T04:30:27;13.30;99.90
21037;DHT22;10677;50.942;4.028;2023-03-23T04:32:53;13.30;99.90
21037;DHT22;10677;50.942;4.028;2023-03-23T04:35:23;13.30;99.90
21037;DHT22;10677;50.942;4.028;2023-03-23T04:37:53;13.20;99.90
21037;DHT22;10677;50.942;4.028;2023-03-23T04:40:20;13.10;99.90
21037;DHT22;10677;50.942;4.028;2023-03-23T04:42:46;13.00;99.90
21037;DHT22;10677;50.942;4.028;2023-03-23T04:45:14;13.10;99.90
21037;DHT22;10677;50.942;4.028;2023-03-23T04:47:41;13.00;99.90
21037;DHT22;10677;50.942;4.028;2023-03-23T04:50:12;13.00;99.90
21037;DHT22;10677;50.942;4.028;2023-03-23T04:52:39;13.00;99.90
21037;DHT22;10677;50.942;4.028;2023-03-23T04:55:08;13.00;99.90
21037;DHT22;10677;50.942;4.028;2023-03-23T04:57:35;13.00;99.90
21037;DHT22;10677;50.942;4.028;2023-03-23T05:00:02;13.10;99.90
21037;DHT22;10677;50.942;4.028;2023-03-23T05:02:35;13.10;99.90
21037;DHT22;10677;50.942;4.028;2023-03-23T05:05:01;13.10;99.90
21037;DHT22;10677;50.942;4.028;2023-03-23T05:07:26;13.10;99.90
21037;DHT22;10677;50.942;4.028;2023-03-23T05:09:52;13.20;99.90
21037;DHT22;10677;50.942;4.028;2023-03-23T05:12:18;13.20;99.90
21037;DHT22;10677;50.942;4.028;2023-03-23T05:14:44;13.20;99.90
21037;DHT22;10677;50.942;4.028;2023-03-23T05:17:09;13.20;99.90
21037;DHT22;10677;50.942;4.028;2023-03-23T05:19:35;13.20;99.90
21037;DHT22;10677;50.942;4.028;2023-03-23T05:22:03;13.30;99.90
21037;DHT22;10677;50.942;4.028;2023-03-23T05:24:32;13.30;99.90
21037;DHT22;10677;50.942;4.028;2023-03-23T05:27:01;13.30;99.90
21037;DHT22;10677;50.942;4.028;2023-03-23T05:29:27;13.30;99.90
21037;DHT22;10677;50.942;4.028;2023-03-23T05:31:56;13.30;99.90
21037;DHT22;10677;50.942;4.028;2023-03-23T05:34:28;13.30;99.90
21037;DHT22;10677;50.942;4.028;2023-03-23T05:36:54;13.20;99.90
21037;DHT22;10677;50.942;4.028;2023-03-23T05:39:21;13.20;99.90
21037;DHT22;10677;50.942;4.028;2023-03-23T05:41:47;13.20;99.90
21037;DHT22;10677;50.942;4.028;2023-03-23T05:44:12;13.20;99.90
21037;DHT22;10677;50.942;4.028;2023-03-23T05:46:39;13.20;99.90
21037;DHT22;10677;50.942;4.028;2023-03-23T05:49:04;13.10;99.90
21037;DHT22;10677;50.942;4.028;2023-03-23T05:51:30;13.10;99.90
21037;DHT22;10677;50.942;4.028;2023-03-23T05:53:57;13.20;99.90
21037;DHT22;10677;50.942;4.028;2023-03-23T05:56:23;13.20;99.90
21037;DHT22;10677;50.942;4.028;2023-03-23T05:58:48;13.20;99.90
21037;DHT22;10677;50.942;4.028;2023-03-23T06:01:14;13.20;99.90
21037;DHT22;10677;50.942;4.028;2023-03-23T06:03:41;13.20;99.90
21037;DHT22;10677;50.942;4.028;2023-03-23T06:06:10;13.20;99.90
21037;DHT22;10677;50.942;4.028;2023-03-23T06:08:37;13.20;99.90
21037;DHT22;10677;50.942;4.028;2023-03-23T06:11:04;12.70;99.90
21037;DHT22;10677;50.942;4.028;2023-03-23T06:13:30;12.00;99.90
21037;DHT22;10677;50.942;4.028;2023-03-23T06:15:56;11.70;99.90
21037;DHT22;10677;50.942;4.028;2023-03-23T06:18:23;11.50;99.90
21037;DHT22;10677;50.942;4.028;2023-03-23T06:20:49;11.20;99.90
21037;DHT22;10677;50.942;4.028;2023-03-23T06:23:16;11.10;99.90
21037;DHT22;10677;50.942;4.028;2023-03-23T06:25:43;10.90;99.90
21037;DHT22;10677;50.942;4.028;2023-03-23T06:28:09;10.80;99.90
21037;DHT22;10677;50.942;4.028;2023-03-23T06:30:36;10.80;99.90
21037;DHT22;10677;50.942;4.028;2023-03-23T06:33:01;10.70;99.90
21037;DHT22;10677;50.942;4.028;2023-03-23T06:35:31;10.70;99.90
21037;DHT22;10677;50.942;4.028;2023-03-23T06:37:56;10.70;99.90
21037;DHT22;10677;50.942;4.028;2023-03-23T06:40:27;10.70;99.90
21037;DHT22;10677;50.942;4.028;2023-03-23T06:42:53;10.70;99.90
21037;DHT22;10677;50.942;4.028;2023-03-23T06:45:19;10.70;99.90
21037;DHT22;10677;50.942;4.028;2023-03-23T06:47:46;10.70;99.90
21037;DHT22;10677;50.942;4.028;2023-03-23T06:50:15;10.70;99.90
21037;DHT22;10677;50.942;4.028;2023-03-23T06:52:45;10.60;99.90
21037;DHT22;10677;50.942;4.028;2023-03-23T06:55:11;10.60;99.90
21037;DHT22;10677;50.942;4.028;2023-03-23T06:57:39;10.60;99.90
21037;DHT22;10677;50.942;4.028;2023-03-23T07:00:05;10.60;99.90
21037;DHT22;10677;50.942;4.028;2023-03-23T07:02:33;10.70;99.90
21037;DHT22;10677;50.942;4.028;2023-03-23T07:04:59;10.70;99.90
21037;DHT22;10677;50.942;4.028;2023-03-23T07:07:25;10.70;99.90
21037;DHT22;10677;50.942;4.028;2023-03-23T07:09:51;10.80;99.90
21037;DHT22;10677;50.942;4.028;2023-03-23T07:12:17;10.80;99.90
21037;DHT22;10677;50.942;4.028;2023-03-23T07:14:45;10.90;99.90
21037;DHT22;10677;50.942;4.028;2023-03-23T07:17:11;11.00;99.90
21037;DHT22;10677;50.942;4.028;2023-03-23T07:19:37;11.10;99.90
21037;DHT22;10677;50.942;4.028;2023-03-23T07:22:05;11.00;99.90
21037;DHT22;10677;50.942;4.028;2023-03-23T07:24:30;11.00;99.90
21037;DHT22;10677;50.942;4.028;2023-03-23T07:26:56;11.10;99.90
21037;DHT22;10677;50.942;4.028;2023-03-23T07:29:22;11.10;99.90
21037;DHT22;10677;50.942;4.028;2023-03-23T07:31:48;11.20;99.90
21037;DHT22;10677;50.942;4.028;2023-03-23T07:34:13;11.30;99.90
21037;DHT22;10677;50.942;4.028;2023-03-23T07:36:40;11.30;99.90
21037;DHT22;10677;50.942;4.028;2023-03-23T07:39:06;11.40;99.90
21037;DHT22;10677;50.942;4.028;2023-03-23T07:41:32;11.40;99.90
21037;DHT22;10677;50.942;4.028;2023-03-23T07:43:58;11.50;99.90
21037;DHT22;10677;50.942;4.028;2023-03-23T07:46:24;11.50;99.90
21037;DHT22;10677;50.942;4.028;2023-03-23T07:48:50;11.60;99.90
21037;DHT22;10677;50.942;4.028;2023-03-23T07:51:16;11.60;99.90
21037;DHT22;10677;50.942;4.028;2023-03-23T07:53:43;11.70;99.90
21037;DHT22;10677;50.942;4.028;2023-03-23T07:56:13;11.70;99.90
21037;DHT22;10677;50.942;4.028;2023-03-23T07:58:42;11.80;99.90
21037;DHT22;10677;50.942;4.028;2023-03-23T08:01:10;11.80;99.90
21037;DHT22;10677;50.942;4.028;2023-03-23T08:03:37;11.80;99.90
21037;DHT22;10677;50.942;4.028;2023-03-23T08:06:03;11.80;99.90
21037;DHT22;10677;50.942;4.028;2023-03-23T08:08:29;11.70;99.90
21037;DHT22;10677;50.942;4.028;2023-03-23T08:10:55;11.70;99.90
21037;DHT22;10677;50.942;4.028;2023-03-23T08:13:22;11.80;99.90
21037;DHT22;10677;50.942;4.028;2023-03-23T08:15:47;11.80;99.90
21037;DHT22;10677;50.942;4.028;2023-03-23T08:18:14;11.80;99.90
21037;DHT22;10677;50.942;4.028;2023-03-23T08:20:40;11.80;99.90
21037;DHT22;10677;50.942;4.028;2023-03-23T08:23:05;11.90;99.90
21037;DHT22;10677;50.942;4.028;2023-03-23T08:25:32;11.90;99.90
21037;DHT22;10677;50.942;4.028;2023-03-23T08:27:59;11.90;99.90
21037;DHT22;10677;50.942;4.028;2023-03-23T08:30:28;11.90;99.90
21037;DHT22;10677;50.942;4.028;2023-03-23T08:32:57;12.00;99.90
21037;DHT22;10677;50.942;4.028;2023-03-23T08:35:24;12.10;99.90
21037;DHT22;10677;50.942;4.028;2023-03-23T08:37:50;12.10;99.90
21037;DHT22;10677;50.942;4.028;2023-03-23T08:40:18;12.20;99.90
21037;DHT22;10677;50.942;4.028;2023-03-23T08:42:46;12.30;99.90
21037;DHT22;10677;50.942;4.028;2023-03-23T08:45:15;12.40;99.90
21037;DHT22;10677;50.942;4.028;2023-03-23T08:47:42;12.70;99.90
21037;DHT22;10677;50.942;4.028;2023-03-23T08:50:11;12.70;99.90
21037;DHT22;10677;50.942;4.028;2023-03-23T08:52:38;12.80;99.90
21037;DHT22;10677;50.942;4.028;2023-03-23T08:55:04;12.80;99.90
21037;DHT22;10677;50.942;4.028;2023-03-23T08:57:30;12.80;99.90
21037;DHT22;10677;50.942;4.028;2023-03-23T08:59:57;12.70;99.90
21037;DHT22;10677;50.942;4.028;2023-03-23T09:02:26;12.60;99.90
21037;DHT22;10677;50.942;4.028;2023-03-23T09:04:55;12.60;99.90
21037;DHT22;10677;50.942;4.028;2023-03-23T09:07:21;12.50;99.90
21037;DHT22;10677;50.942;4.028;2023-03-23T09:09:47;12.60;99.90
21037;DHT22;10677;50.942;4.028;2023-03-23T09:12:13;12.70;99.90
21037;DHT22;10677;50.942;4.028;2023-03-23T09:14:39;12.70;99.90
21037;DHT22;10677;50.942;4.028;2023-03-23T09:17:06;12.60;99.90
21037;DHT22;10677;50.942;4.028;2023-03-23T09:19:33;12.60;99.90
21037;DHT22;10677;50.942;4.028;2023-03-23T09:21:59;12.60;99.90
21037;DHT22;10677;50.942;4.028;2023-03-23T09:24:26;12.70;99.90
21037;DHT22;10677;50.942;4.028;2023-03-23T09:26:52;12.70;99.90
21037;DHT22;10677;50.942;4.028;2023-03-23T09:29:18;12.70;99.90
21037;DHT22;10677;50.942;4.028;2023-03-23T09:31:44;12.60;99.90
21037;DHT22;10677;50.942;4.028;2023-03-23T09:34:12;12.60;99.90
21037;DHT22;10677;50.942;4.028;2023-03-23T09:36:39;12.70;99.90
21037;DHT22;10677;50.942;4.028;2023-03-23T09:39:05;12.80;99.90
21037;DHT22;10677;50.942;4.028;2023-03-23T09:45:02;13.00;99.90
21037;DHT22;10677;50.942;4.028;2023-03-23T09:50:10;13.00;99.90
21037;DHT22;10677;50.942;4.028;2023-03-23T09:52:54;13.20;99.90
21037;DHT22;10677;50.942;4.028;2023-03-23T09:55:21;13.30;99.90
21037;DHT22;10677;50.942;4.028;2023-03-23T10:00:39;13.70;99.90
21037;DHT22;10677;50.942;4.028;2023-03-23T10:03:12;13.90;99.90
21037;DHT22;10677;50.942;4.028;2023-03-23T10:05:53;14.10;99.90
21037;DHT22;10677;50.942;4.028;2023-03-23T10:08:24;14.30;99.90
21037;DHT22;10677;50.942;4.028;2023-03-23T10:16:28;14.70;99.90
21037;DHT22;10677;50.942;4.028;2023-03-23T10:21:24;14.90;99.90
21037;DHT22;10677;50.942;4.028;2023-03-23T10:24:04;15.10;99.90
21037;DHT22;10677;50.942;4.028;2023-03-23T10:29:25;15.40;99.90
21037;DHT22;10677;50.942;4.028;2023-03-23T10:32:00;15.50;99.90
21037;DHT22;10677;50.942;4.028;2023-03-23T10:37:12;15.60;99.90
21037;DHT22;10677;50.942;4.028;2023-03-23T10:39:59;15.50;99.90
21037;DHT22;10677;50.942;4.028;2023-03-23T10:42:31;15.40;99.90
21037;DHT22;10677;50.942;4.028;2023-03-23T10:45:00;15.30;99.90
21037;DHT22;10677;50.942;4.028;2023-03-23T10:47:26;15.50;99.90
21037;DHT22;10677;50.942;4.028;2023-03-23T10:50:02;15.50;99.90
21037;DHT22;10677;50.942;4.028;2023-03-23T10:52:35;15.30;99.90
21037;DHT22;10677;50.942;4.028;2023-03-23T10:57:37;14.80;99.90
21037;DHT22;10677;50.942;4.028;2023-03-23T11:00:08;14.70;99.90
21037;DHT22;10677;50.942;4.028;2023-03-23T11:02:44;14.60;99.90
21037;DHT22;10677;50.942;4.028;2023-03-23T11:05:20;14.50;99.90
21037;DHT22;10677;50.942;4.028;2023-03-23T11:07:54;14.70;99.90
21037;DHT22;10677;50.942;4.028;2023-03-23T11:12:47;14.70;99.90
21037;DHT22;10677;50.942;4.028;2023-03-23T11:15:25;14.70;99.90
21037;DHT22;10677;50.942;4.028;2023-03-23T11:18:00;14.60;99.90
21037;DHT22;10677;50.942;4.028;2023-03-23T11:20:27;14.50;99.90
21037;DHT22;10677;50.942;4.028;2023-03-23T11:22:54;14.60;99.90
21037;DHT22;10677;50.942;4.028;2023-03-23T11:25:20;14.70;99.90
21037;DHT22;10677;50.942;4.028;2023-03-23T11:27:46;14.80;99.90
21037;DHT22;10677;50.942;4.028;2023-03-23T11:32:48;15.00;99.90
21037;DHT22;10677;50.942;4.028;2023-03-23T11:35:21;14.90;99.90
21037;DHT22;10677;50.942;4.028;2023-03-23T11:37:56;15.00;99.90
21037;DHT22;10677;50.942;4.028;2023-03-23T11:40:25;15.10;99.90
21037;DHT22;10677;50.942;4.028;2023-03-23T11:43:23;15.10;99.90
21037;DHT22;10677;50.942;4.028;2023-03-23T11:48:42;15.10;99.90
21037;DHT22;10677;50.942;4.028;2023-03-23T11:51:18;15.40;99.90
21037;DHT22;10677;50.942;4.028;2023-03-23T11:53:57;15.70;99.90
21037;DHT22;10677;50.942;4.028;2023-03-23T11:59:01;16.40;99.90
21037;DHT22;10677;50.942;4.028;2023-03-23T12:01:48;16.60;99.90
21037;DHT22;10677;50.942;4.028;2023-03-23T12:04:30;16.50;99.90
21037;DHT22;10677;50.942;4.028;2023-03-23T12:07:13;16.50;99.90
21037;DHT22;10677;50.942;4.028;2023-03-23T12:10:02;16.50;99.90
21037;DHT22;10677;50.942;4.028;2023-03-23T12:12:42;16.40;99.90
21037;DHT22;10677;50.942;4.028;2023-03-23T12:26:26;16.70;99.90
21037;DHT22;10677;50.942;4.028;2023-03-23T12:31:49;16.90;99.90
21037;DHT22;10677;50.942;4.028;2023-03-23T12:45:50;18.20;99.90
21037;DHT22;10677;50.942;4.028;2023-03-23T12:48:12;18.20;99.90
21037;DHT22;10677;50.942;4.028;2023-03-23T12:54:03;18.40;99.90
21037;DHT22;10677;50.942;4.028;2023-03-23T12:59:23;18.20;99.90
21037;DHT22;10677;50.942;4.028;2023-03-23T13:01:51;17.80;99.90
21037;DHT22;10677;50.942;4.028;2023-03-23T13:04:27;17.30;99.90
21037;DHT22;10677;50.942;4.028;2023-03-23T13:06:54;17.00;99.90
21037;DHT22;10677;50.942;4.028;2023-03-23T13:11:59;16.20;99.90
21037;DHT22;10677;50.942;4.028;2023-03-23T13:14:41;16.20;99.90
21037;DHT22;10677;50.942;4.028;2023-03-23T13:23:22;17.00;99.90
21037;DHT22;10677;50.942;4.028;2023-03-23T13:25:49;17.30;99.90
21037;DHT22;10677;50.942;4.028;2023-03-23T13:28:17;17.40;99.90
21037;DHT22;10677;50.942;4.028;2023-03-23T13:31:11;17.50;99.90
21037;DHT22;10677;50.942;4.028;2023-03-23T13:33:37;17.50;99.90
21037;DHT22;10677;50.942;4.028;2023-03-23T13:36:11;17.40;99.90
21037;DHT22;10677;50.942;4.028;2023-03-23T13:38:38;17.30;99.90
21037;DHT22;10677;50.942;4.028;2023-03-23T13:41:12;17.40;99.90
21037;DHT22;10677;50.942;4.028;2023-03-23T13:43:40;17.40;99.90
21037;DHT22;10677;50.942;4.028;2023-03-23T13:48:49;17.10;99.90
21037;DHT22;10677;50.942;4.028;2023-03-23T13:57:02;17.50;99.90
21037;DHT22;10677;50.942;4.028;2023-03-23T13:59:34;17.90;99.90
21037;DHT22;10677;50.942;4.028;2023-03-23T14:02:36;18.20;99.90
21037;DHT22;10677;50.942;4.028;2023-03-23T14:10:59;18.30;99.90
21037;DHT22;10677;50.942;4.028;2023-03-23T14:13:32;18.70;99.90
21037;DHT22;10677;50.942;4.028;2023-03-23T14:16:01;19.10;99.90
21037;DHT22;10677;50.942;4.028;2023-03-23T14:18:35;19.30;99.90
21037;DHT22;10677;50.942;4.028;2023-03-23T14:21:03;19.00;99.90
21037;DHT22;10677;50.942;4.028;2023-03-23T14:23:34;18.50;99.90
21037;DHT22;10677;50.942;4.028;2023-03-23T14:26:02;18.60;99.90
21037;DHT22;10677;50.942;4.028;2023-03-23T14:28:41;19.20;99.90
21037;DHT22;10677;50.942;4.028;2023-03-23T14:31:26;20.00;99.90
21037;DHT22;10677;50.942;4.028;2023-03-23T14:33:54;19.30;99.90
21037;DHT22;10677;50.942;4.028;2023-03-23T14:36:26;18.50;99.90
21037;DHT22;10677;50.942;4.028;2023-03-23T14:41:55;17.20;99.90
21037;DHT22;10677;50.942;4.028;2023-03-23T14:44:24;16.70;99.90
21037;DHT22;10677;50.942;4.028;2023-03-23T14:46:52;16.60;99.90
21037;DHT22;10677;50.942;4.028;2023-03-23T14:49:34;16.50;99.90
21037;DHT22;10677;50.942;4.028;2023-03-23T14:52:09;16.80;99.90
21037;DHT22;10677;50.942;4.028;2023-03-23T16:40:24;16.80;99.90
21037;DHT22;10677;50.942;4.028;2023-03-23T16:42:50;16.70;99.90
21037;DHT22;10677;50.942;4.028;2023-03-23T16:45:16;16.70;99.90
21037;DHT22;10677;50.942;4.028;2023-03-23T16:47:43;16.70;99.90
21037;DHT22;10677;50.942;4.028;2023-03-23T16:50:12;16.70;99.90
21037;DHT22;10677;50.942;4.028;2023-03-23T16:52:39;16.60;99.90
21037;DHT22;10677;50.942;4.028;2023-03-23T16:55:06;16.50;99.90
21037;DHT22;10677;50.942;4.028;2023-03-23T16:57:33;16.50;99.90
21037;DHT22;10677;50.942;4.028;2023-03-23T17:00:03;16.50;99.90
21037;DHT22;10677;50.942;4.028;2023-03-23T17:02:31;16.40;99.90
21037;DHT22;10677;50.942;4.028;2023-03-23T17:04:56;16.30;99.90
21037;DHT22;10677;50.942;4.028;2023-03-23T17:07:23;16.30;99.90
21037;DHT22;10677;50.942;4.028;2023-03-23T17:09:49;16.30;99.90
21037;DHT22;10677;50.942;4.028;2023-03-23T17:12:14;16.20;99.90
21037;DHT22;10677;50.942;4.028;2023-03-23T17:14:40;16.20;99.90
21037;DHT22;10677;50.942;4.028;2023-03-23T17:17:06;16.10;99.90
21037;DHT22;10677;50.942;4.028;2023-03-23T17:19:32;16.00;99.90
21037;DHT22;10677;50.942;4.028;2023-03-23T17:21:58;15.90;99.90
21037;DHT22;10677;50.942;4.028;2023-03-23T17:24:23;15.90;99.90
21037;DHT22;10677;50.942;4.028;2023-03-23T17:26:50;15.80;99.90
21037;DHT22;10677;50.942;4.028;2023-03-23T17:29:16;15.80;99.90
21037;DHT22;10677;50.942;4.028;2023-03-23T17:31:42;15.80;99.90
21037;DHT22;10677;50.942;4.028;2023-03-23T17:34:08;15.80;99.90
21037;DHT22;10677;50.942;4.028;2023-03-23T17:36:33;15.80;99.90
21037;DHT22;10677;50.942;4.028;2023-03-23T17:38:59;15.70;99.90
21037;DHT22;10677;50.942;4.028;2023-03-23T17:41:25;15.70;99.90
21037;DHT22;10677;50.942;4.028;2023-03-23T17:43:51;15.70;99.90
21037;DHT22;10677;50.942;4.028;2023-03-23T17:46:16;15.70;99.90
21037;DHT22;10677;50.942;4.028;2023-03-23T17:48:43;15.70;99.90
21037;DHT22;10677;50.942;4.028;2023-03-23T17:51:08;15.70;99.90
21037;DHT22;10677;50.942;4.028;2023-03-23T17:53:34;15.60;99.90
21037;DHT22;10677;50.942;4.028;2023-03-23T17:56:01;15.70;99.90
21037;DHT22;10677;50.942;4.028;2023-03-23T17:58:27;15.70;99.90
21037;DHT22;10677;50.942;4.028;2023-03-23T18:00:55;15.60;99.90
21037;DHT22;10677;50.942;4.028;2023-03-23T18:03:22;15.60;99.90
21037;DHT22;10677;50.942;4.028;2023-03-23T18:05:49;15.60;99.90
21037;DHT22;10677;50.942;4.028;2023-03-23T18:08:16;15.60;99.90
21037;DHT22;10677;50.942;4.028;2023-03-23T18:10:43;15.50;99.90
21037;DHT22;10677;50.942;4.028;2023-03-23T18:13:09;15.60;99.90
21037;DHT22;10677;50.942;4.028;2023-03-23T18:15:35;15.50;99.90
21037;DHT22;10677;50.942;4.028;2023-03-23T18:18:03;15.50;99.90
21037;DHT22;10677;50.942;4.028;2023-03-23T18:20:30;15.50;99.90
21037;DHT22;10677;50.942;4.028;2023-03-23T18:22:56;15.50;99.90
21037;DHT22;10677;50.942;4.028;2023-03-23T18:25:22;15.50;99.90
21037;DHT22;10677;50.942;4.028;2023-03-23T18:27:48;15.40;99.90
21037;DHT22;10677;50.942;4.028;2023-03-23T18:30:14;15.40;99.90
21037;DHT22;10677;50.942;4.028;2023-03-23T18:32:40;15.30;99.90
21037;DHT22;10677;50.942;4.028;2023-03-23T18:35:08;15.40;99.90
21037;DHT22;10677;50.942;4.028;2023-03-23T18:37:36;15.30;99.90
21037;DHT22;10677;50.942;4.028;2023-03-23T18:40:04;15.30;99.90
21037;DHT22;10677;50.942;4.028;2023-03-23T18:42:30;15.20;99.90
21037;DHT22;10677;50.942;4.028;2023-03-23T18:44:56;15.20;99.90
21037;DHT22;10677;50.942;4.028;2023-03-23T18:47:24;15.10;99.90
21037;DHT22;10677;50.942;4.028;2023-03-23T18:49:50;15.00;99.90
21037;DHT22;10677;50.942;4.028;2023-03-23T18:52:22;15.00;99.90
21037;DHT22;10677;50.942;4.028;2023-03-23T18:54:52;14.90;99.90
21037;DHT22;10677;50.942;4.028;2023-03-23T18:57:18;14.90;99.90
21037;DHT22;10677;50.942;4.028;2023-03-23T18:59:47;14.90;99.90
21037;DHT22;10677;50.942;4.028;2023-03-23T19:02:13;14.90;99.90
21037;DHT22;10677;50.942;4.028;2023-03-23T19:04:39;14.90;99.90
21037;DHT22;10677;50.942;4.028;2023-03-23T19:07:05;14.80;99.90
21037;DHT22;10677;50.942;4.028;2023-03-23T19:09:32;14.80;99.90
21037;DHT22;10677;50.942;4.028;2023-03-23T19:11:59;14.80;99.90
21037;DHT22;10677;50.942;4.028;2023-03-23T19:14:25;14.80;99.90
21037;DHT22;10677;50.942;4.028;2023-03-23T19:16:51;14.70;99.90
21037;DHT22;10677;50.942;4.028;2023-03-23T19:19:17;14.80;99.90
21037;DHT22;10677;50.942;4.028;2023-03-23T19:21:43;14.80;99.90